Saint Johnsbury, Vermont
Current Conditions -  °F | °C
As of 3:55 AM on Wednesday 22 Oct 2014 (Local Time) from KCDA Reporting Station
Moderate Rain Moderate Rain  
Wind Chill: 47°   Ceiling: 3900
Heat Index: 47°   Visibility: 10mi
Dew Point: 42°   Wind: 0mph
Humidity: 84%   Direction: NA
Pressure: 30.12"   Gusts: NA
Location:  44.42°N, 72.01°W
Report Text: KCDA 220755Z AUTO 00000KT 10SM RA SCT018 SCT027 OVC039 08/06 A3012 RMK AO2 T00810056
Loading
Personal Weather Stations






























Interactive Weather Map New forecast layout! Learn more

10-Day Weather Forecast

Advertisements
Track Severe Weather on mobile